1878 Depression NOT_NAMED (1878256N19090)


IBTrACS version v04r00. Visit IBTrACS website for data access.
Please direct all questions to the IBTrACS Q and A forum

Storm track - Intensity - Wind Radii - Intensity Data - Source Data - All data

Summary Information

Storm ID 1878256N19090
Start Sep 13 00Z
Landfall Sep 14 15Z
Max Intensity 30 kt (Sep 13 03Z)
End Sep 20 03Z
ATCF IDs
Track status Best track data.

Storm track plot

Map of storm track

Intensity plots

Map of storm track

Radial wind information

No radial wind information for this storm


Position and Intensity Table

BASIN ISO_TIME_________ NATURE LAT LON DS824 WIND
degrees north degrees east kts
NI 1878-09-13 00:00:00 TS 19.10 89.80 30
NI 03:00:00 TS 19.09 89.60 30
NI 06:00:00 TS 19.11 89.32 30
NI 09:00:00 TS 19.14 89.04 30
NI 12:00:00 TS 19.19 88.76 30
NI 15:00:00 TS 19.23 88.42 30
NI 18:00:00 TS 19.27 88.09 30
NI 21:00:00 TS 19.31 87.77 30
NI 1878-09-14 00:00:00 TS 19.37 87.46 30
NI 03:00:00 TS 19.45 87.15 30
NI 06:00:00 TS 19.54 86.85 30
NI 09:00:00 TS 19.63 86.56 30
NI 12:00:00 TS 19.74 86.26 30
NI 15:00:00 TS 19.87 85.93 30
NI 18:00:00 TS 20.01 85.60 30
NI 21:00:00 TS 20.15 85.27 30
NI 1878-09-15 00:00:00 TS 20.31 84.90 30
NI 03:00:00 TS 20.49 84.44 30
NI 06:00:00 TS 20.71 83.92 30
NI 09:00:00 TS 20.96 83.41 30
NI 12:00:00 TS 21.20 82.88 30
NI 15:00:00 TS 21.39 82.33 30
NI 18:00:00 TS 21.53 81.75 30
NI 21:00:00 TS 21.62 81.11 30
NI 1878-09-16 00:00:00 TS 21.67 80.55 30
NI 03:00:00 TS 21.70 80.15 30
NI 06:00:00 TS 21.71 79.87 30
NI 09:00:00 TS 21.71 79.59 30
NI 12:00:00 TS 21.71 79.32 30
NI 15:00:00 TS 21.70 79.05 30
NI 18:00:00 TS 21.69 78.77 30
NI 21:00:00 TS 21.68 78.50 30
NI 1878-09-17 00:00:00 TS 21.69 78.18 30
NI 03:00:00 TS 21.72 77.76 30
NI 06:00:00 TS 21.77 77.28 30
NI 09:00:00 TS 21.86 76.79 30
NI 12:00:00 TS 21.95 76.27 30
NI 15:00:00 TS 22.05 75.69 30
NI 18:00:00 TS 22.15 75.11 30
NI 21:00:00 TS 22.27 74.58 30
NI 1878-09-18 00:00:00 TS 22.36 74.18 30
NI 03:00:00 TS 22.41 73.97 30
NI 06:00:00 TS 22.41 73.93 30
NI 09:00:00 TS 22.41 73.92 30
NI 12:00:00 TS 22.41 73.96 30
NI 15:00:00 TS 22.40 74.00 30
NI 18:00:00 TS 22.39 74.03 30
NI 21:00:00 TS 22.38 74.07 30
NI 1878-09-19 00:00:00 TS 22.39 74.05 30
NI 03:00:00 TS 22.42 73.91 30
NI 06:00:00 TS 22.47 73.63 30
NI 09:00:00 TS 22.55 73.24 30
NI 12:00:00 TS 22.65 72.80 30
NI 15:00:00 TS 22.75 72.42 30
NI 18:00:00 TS 22.85 72.08 30
NI 21:00:00 TS 22.98 71.74 30
NI 1878-09-20 00:00:00 TS 23.11 71.42 30
NI 03:00:00 NR 23.20 71.20

Source Information

Agency Information
USA
TOKYO
CMA
HKO
NEWDELHI
REUNION
BOM
NADI
WELLINGTON
DS824 n_ind.dat:13:NOT NAMED
TD9636 cons_worldwide_trop_cyclone_18710101-19891231-004:Line=135
TD9635
NEUMANN
MLC

All available IBTrACS Data

SEASON BASIN SUBBASIN ISO_TIME_________ NATURE LAT LON DIST2LAND LANDFALL IFLAG USA SSHS DS824 LAT DS824 LON DS824 STAGE DS824 WIND TD9636 LAT TD9636 LON TD9636 STAGE STORM SPEED STORM DIR
Year degrees north degrees east km km 1 degrees north degrees east kts degrees north degrees east kts degrees
1878 NI BB 1878-09-13 00:00:00 TS 19.10 89.80 288 284 _________O____ -1 19.10 89.80 TC 30 4 268
1878 NI BB 03:00:00 TS 19.09 89.60 284 280 _________PO___ -1 19.09 89.50 TC 30 19.10 89.80 1 5 271
1878 NI BB 06:00:00 TS 19.11 89.32 280 279 _________OP___ -1 19.10 89.20 TC 30 19.12 89.51 1 5 275
1878 NI BB 09:00:00 TS 19.14 89.04 275 251 _________PP___ -1 19.14 88.91 TC 30 19.15 89.21 1 5 278
1878 NI BB 12:00:00 TS 19.19 88.76 251 216 _________OP___ -1 19.20 88.60 TC 30 19.17 88.91 1 6 278
1878 NI BB 15:00:00 TS 19.23 88.42 216 184 _________PO___ -1 19.25 88.25 TC 30 19.20 88.60 1 6 277
1878 NI BB 18:00:00 TS 19.27 88.09 184 160 _________OP___ -1 19.30 87.90 TC 30 19.23 88.28 1 6 278
1878 NI BB 21:00:00 TS 19.31 87.77 160 130 _________PP___ -1 19.34 87.59 TC 30 19.28 87.95 1 6 279
1878 NI BB 1878-09-14 00:00:00 TS 19.37 87.46 130 107 _________OP___ -1 19.40 87.30 TC 30 19.33 87.62 1 6 283
1878 NI BB 03:00:00 TS 19.45 87.15 107 76 _________PO___ -1 19.49 87.00 TC 30 19.40 87.30 1 6 287
1878 NI BB 06:00:00 TS 19.54 86.85 76 49 _________OP___ -1 19.60 86.70 TC 30 19.48 87.00 1 6 288
1878 NI BB 09:00:00 TS 19.63 86.56 49 30 _________PP___ -1 19.69 86.41 TC 30 19.57 86.71 1 6 290
1878 NI BB 12:00:00 TS 19.74 86.26 30 0 _________OP___ -1 19.80 86.10 TC 30 19.68 86.41 1 6 292
1878 NI BB 15:00:00 TS 19.87 85.93 0 0 _________PO___ -1 19.94 85.76 TC 30 19.80 86.10 1 7 294
1878 NI BB 18:00:00 TS 20.01 85.60 0 0 _________OP___ -1 20.10 85.40 TC 30 19.92 85.79 1 7 295
1878 NI BB 21:00:00 TS 20.15 85.27 0 0 _________PP___ -1 20.24 85.08 TC 30 20.06 85.47 1 7 295
1878 NI BB 1878-09-15 00:00:00 TS 20.31 84.90 0 0 _________OP___ -1 20.40 84.70 TC 30 20.22 85.11 1 9 293
1878 NI BB 03:00:00 TS 20.49 84.44 0 0 _________PO___ -1 20.59 84.17 TC 30 20.40 84.70 1 10 294
1878 NI BB 06:00:00 TS 20.71 83.92 0 0 _________OP___ -1 20.80 83.60 TC 30 20.62 84.23 1 11 296
1878 NI BB 09:00:00 TS 20.96 83.41 0 0 _________PP___ -1 21.06 83.10 TC 30 20.86 83.72 1 11 297
1878 NI BB 12:00:00 TS 21.20 82.88 0 0 _________OP___ -1 21.30 82.60 TC 30 21.10 83.17 1 11 293
1878 NI BB 15:00:00 TS 21.39 82.33 0 0 _________PO___ -1 21.48 82.06 TC 30 21.30 82.60 1 11 287
1878 NI BB 18:00:00 TS 21.53 81.75 0 0 _________OP___ -1 21.60 81.50 TC 30 21.45 81.99 1 12 282
1878 NI BB 21:00:00 TS 21.62 81.11 0 0 _________PP___ -1 21.67 80.85 TC 30 21.57 81.37 1 11 278
1878 NI BB 1878-09-16 00:00:00 TS 21.67 80.55 0 0 _________OP___ -1 21.70 80.30 TC 30 21.65 80.80 1 9 275
1878 NI BB 03:00:00 TS 21.70 80.15 0 0 _________PO___ -1 21.71 80.00 TC 30 21.70 80.30 1 6 274
1878 NI BB 06:00:00 TS 21.71 79.87 0 0 _________OP___ -1 21.70 79.80 TC 30 21.73 79.94 1 5 271
1878 NI BB 09:00:00 TS 21.71 79.59 0 0 _________PP___ -1 21.70 79.51 TC 30 21.73 79.67 1 5 269
1878 NI BB 12:00:00 TS 21.71 79.32 0 0 _________OP___ -1 21.70 79.20 TC 30 21.72 79.43 1 5 268
1878 NI BB 15:00:00 TS 21.70 79.05 0 0 _________PO___ -1 21.70 78.90 TC 30 21.70 79.20 1 5 268
1878 NI BB 18:00:00 TS 21.69 78.77 0 0 _________OP___ -1 21.70 78.60 TC 30 21.69 78.94 1 5 268
1878 NI BB 21:00:00 TS 21.68 78.50 0 0 _________PP___ -1 21.69 78.33 TC 30 21.68 78.67 1 5 269
1878 NI BB 1878-09-17 00:00:00 TS 21.69 78.18 0 0 _________OP___ -1 21.70 78.00 TC 30 21.68 78.36 1 7 273
1878 NI AS 03:00:00 TS 21.72 77.76 0 0 _________PO___ -1 21.74 77.53 TC 30 21.70 78.00 1 8 276
1878 NI AS 06:00:00 TS 21.77 77.28 0 0 _________OP___ -1 21.80 77.00 TC 30 21.75 77.56 1 9 279
1878 NI AS 09:00:00 TS 21.86 76.79 0 0 _________PP___ -1 21.89 76.51 TC 30 21.82 77.06 1 10 281
1878 NI AS 12:00:00 TS 21.95 76.27 0 0 _________OP___ -1 22.00 76.00 TC 30 21.91 76.53 1 10 281
1878 NI AS 15:00:00 TS 22.05 75.69 0 0 _________PO___ -1 22.10 75.39 TC 30 22.00 76.00 1 11 281
1878 NI AS 18:00:00 TS 22.15 75.11 0 0 _________OP___ -1 22.20 74.80 TC 30 22.11 75.42 1 11 282
1878 NI AS 21:00:00 TS 22.27 74.58 0 0 _________PP___ -1 22.31 74.31 TC 30 22.22 74.85 1 9 284
1878 NI AS 1878-09-18 00:00:00 TS 22.36 74.18 0 0 _________OP___ -1 22.40 74.00 TC 30 22.33 74.36 1 6 284
1878 NI AS 03:00:00 TS 22.41 73.97 0 0 _________PO___ -1 22.41 73.94 TC 30 22.40 74.00 1 2 282
1878 NI AS 06:00:00 TS 22.41 73.93 0 0 _________OP___ -1 22.40 74.00 TC 30 22.43 73.86 1 0 280
1878 NI AS 09:00:00 TS 22.41 73.92 0 0 _________PP___ -1 22.40 74.00 TC 30 22.43 73.85 1 0 99
1878 NI AS 12:00:00 TS 22.41 73.96 0 0 _________OP___ -1 22.40 74.00 TC 30 22.42 73.92 1 1 102
1878 NI AS 15:00:00 TS 22.40 74.00 0 0 _________PO___ -1 22.40 74.00 TC 30 22.40 74.00 1 1 102
1878 NI AS 18:00:00 TS 22.39 74.03 0 0 _________OP___ -1 22.40 74.00 TC 30 22.39 74.06 1 1 103
1878 NI AS 21:00:00 TS 22.38 74.07 0 0 _________PP___ -1 22.39 74.04 TC 30 22.38 74.10 1 0 0
1878 NI AS 1878-09-19 00:00:00 TS 22.39 74.05 0 0 _________OP___ -1 22.40 74.00 TC 30 22.38 74.10 1 2 282
1878 NI AS 03:00:00 TS 22.42 73.91 0 0 _________PO___ -1 22.43 73.82 TC 30 22.40 74.00 1 4 282
1878 NI AS 06:00:00 TS 22.47 73.63 0 0 _________OP___ -1 22.50 73.50 TC 30 22.45 73.75 1 6 282
1878 NI AS 09:00:00 TS 22.55 73.24 0 0 _________PP___ -1 22.59 73.07 TC 30 22.51 73.41 1 8 283
1878 NI AS 12:00:00 TS 22.65 72.80 0 0 _________OP___ -1 22.70 72.60 TC 30 22.60 73.01 1 8 284
1878 NI AS 15:00:00 TS 22.75 72.42 0 0 _________PO___ -1 22.79 72.23 TC 30 22.70 72.60 1 7 287
1878 NI AS 18:00:00 TS 22.85 72.08 0 0 _________OP___ -1 22.90 71.90 TC 30 22.81 72.22 1 7 290
1878 NI AS 21:00:00 TS 22.98 71.74 0 0 _________PP___ -1 23.04 71.56 TC 30 22.94 71.87 1 7 293
1878 NI AS 1878-09-20 00:00:00 TS 23.11 71.42 0 0 _________OP___ -1 23.20 71.20 TC 30 23.07 71.53 1 5 294
1878 NI AS 03:00:00 NR 23.20 71.20 0 __________O___ -1 TC 23.20 71.20 1 4 294